Nearby METAR Reports

 

KPMP - Pompano Beach, Florida, USA
Distance from station: NNW 3mi, 5km
Updated: 05/24/2018 4:53pm
Clear
Clear
 Wind from E
Wind: E 9 mph , 15 km/h
Temperature: 82°F , 28°C
Heat Index: 87°F , 31°C
Dew Point: 73°F , 23°C
Humidity: 74%
Barometer: 30.03 inHg , 1016.9 hPa
Clouds: Clear
Visibility: 10 miles , 16 km
2018/05/24 20:53 KPMP 242053Z 10008KT 10SM CLR 28/23 A3003 RMK AO2 SLP168 T02780228 56013
KFXE - Ft Lauderd/Exec, Florida, USA
Distance from station: W 6mi, 9km
Updated: 05/24/2018 4:53pm
Partly cloudy
Partly cloudy
 Wind from ESE
Wind: ESE 10 mph , 17 km/h
Temperature: 82°F , 28°C
Heat Index: 89°F , 32°C
Dew Point: 75°F , 24°C
Humidity: 79%
Barometer: 30.02 inHg , 1016.6 hPa
Clouds: Partly cloudy
Visibility: 10 miles , 16 km
Cloud details: Partly cloudy 2000 ft
2018/05/24 20:53 KFXE 242053Z 11009KT 10SM SCT020 28/24 A3002 RMK AO2 SLP168 T02780239 56014
 
KFLL - Ft Lauderd/Holly, Florida, USA
Distance from station: SSW 11mi, 17km
Updated: 05/24/2018 4:53pm
Overcast
Overcast
 Wind from E
Wind: E 12 mph , 19 km/h
Temperature: 81°F , 27°C
Heat Index: 88°F , 31°C
Dew Point: 77°F , 25°C
Humidity: 89%
Barometer: 30.01 inHg , 1016.3 hPa
Clouds: Overcast
Visibility: 10 miles , 16 km
Cloud details: Partly cloudy 1800 ft
Mostly cloudy 8000 ft
Overcast 25000 ft
2018/05/24 20:53 KFLL 242053Z 10010KT 10SM SCT018 BKN080 OVC250 27/25 A3001 RMK RAE05
KBCT - Boca Raton, Florida, USA
Distance from station: N 12mi, 19km
Updated: 05/24/2018 4:47pm
Partly cloudy
Partly cloudy
 Wind from E
Wind: E 10 mph , 17 km/h
Temperature: 82°F , 28°C
Heat Index: 87°F , 31°C
Dew Point: 73°F , 23°C
Humidity: 74%
Barometer: 30.03 inHg , 1016.9 hPa
Clouds: Partly cloudy
Visibility: 10 miles , 16 km
Cloud details: Partly cloudy 2000 ft
2018/05/24 20:47 KBCT 242047Z 09009KT 10SM SCT020 28/23 A3003
 
KHWO - Hollywood, Florida, USA
Distance from station: SSW 17mi, 27km
Updated: 05/24/2018 4:53pm
Few Clouds
Few Clouds
 Wind from E
Wind: E 10 mph , 17 km/h
Temperature: 82°F , 28°C
Heat Index: 86°F , 30°C
Dew Point: 72°F , 22°C
Humidity: 70%
Barometer: 30.04 inHg , 1017.3 hPa
Clouds: Few Clouds
Visibility: 10 miles , 16 km
Cloud details: Few Clouds 2300 ft
Few Clouds 3700 ft
2018/05/24 20:53 KHWO 242053Z 09009KT 10SM FEW023 FEW037 28/22 A3004 RMK AO2 SLP170 T02830222 $
KOPF - Miami/Opa Locka, Florida, USA
Distance from station: SSW 24mi, 38km
Updated: 05/24/2018 4:53pm
Few Clouds
Few Clouds
 Wind from E
Wind: E 10 mph , 17 km/h
Temperature: 82°F , 28°C
Heat Index: 87°F , 31°C
Dew Point: 73°F , 23°C
Humidity: 74%
Barometer: 30.02 inHg , 1016.6 hPa
Clouds: Few Clouds
Visibility: 10 miles , 16 km
Cloud details: Few Clouds 2500 ft
2018/05/24 20:53 KOPF 242053Z 10009KT 10SM FEW025 28/23 A3002 RMK AO2 SLP167 T02780228 56014
 
KMIA - Miami, Florida, USA
Distance from station: SSW 31mi, 50km
Updated: 05/24/2018 4:53pm
Overcast
Overcast
 Wind from E
Wind: E 10 mph , 17 km/h
Temperature: 81°F , 27°C
Heat Index: 86°F , 30°C
Dew Point: 73°F , 23°C
Humidity: 79%
Barometer: 30.01 inHg , 1016.3 hPa
Clouds: Overcast
Visibility: 10 miles , 16 km
Cloud details: Partly cloudy 2700 ft
Partly cloudy 6000 ft
Mostly cloudy 10000 ft
Overcast 25000 ft
2018/05/24 20:53 KMIA 242053Z 10009KT 10SM SCT027 SCT060 BKN100 OVC250 27/23 A3001 RMK AO2 SLP163 T02720228 58014
KPBI - West Palm Beach, Florida, USA
Distance from station: N 33mi, 52km
Updated: 05/24/2018 4:53pm
Mostly cloudy
Mostly cloudy
 Wind from E
Wind: E 10 mph , 17 km/h
Temperature: 81°F , 27°C
Heat Index: 86°F , 30°C
Dew Point: 73°F , 23°C
Humidity: 79%
Barometer: 30.03 inHg , 1016.9 hPa
Clouds: Mostly cloudy
Visibility: 10 miles , 16 km
Cloud details: Partly cloudy 2300 ft
Mostly cloudy 20000 ft
2018/05/24 20:53 KPBI 242053Z 10009KT 10SM SCT023 BKN200 27/23 A3003 RMK AO2 SLP170 T02670233 56015
 
KTMB - Miami/Tamiami, Florida, USA
Distance from station: SSW 44mi, 71km
Updated: 05/24/2018 5:15pm
Clear
Clear
 Wind from E
Wind: E 10 mph , 17 km/h
Temperature: 82°F , 28°C
Heat Index: 86°F , 30°C
Dew Point: 72°F , 22°C
Humidity: 70%
Barometer: 30.01 inHg , 1016.3 hPa
Clouds: Clear
Visibility: 10 miles , 16 km
2018/05/24 21:15 KTMB 242115Z 10009KT 10SM CLR 28/22 A3001 RMK AO2 T02780222